Shipshewana, IN

10:12 PM EST on January 21, 2017 (GMT -0500)
Klinger | | Change Station
Active Advisory: Dense Fog Advisory

Elev 916 ft 41.79 °N, 85.54 °W | Updated 8 seconds ago

Partly Cloudy
Partly Cloudy
71.6 °F
Feels Like 77 °F
N
0.0
Wind Variable Wind from West
Gusts 0.0 mph

Today
High -- | Low -- °F
--% Chance of Precip.
Yesterday
High -- | Low -- °F
Precip. -- in
Pressure 29.59 in
Visibility 5.0 miles
Clouds Scattered Clouds 3700 ft
Heat Index 77 °F
Dew Point 49 °F
Humidity 44%
Rainfall 0.00 in
Snow Depth Not available.
8:03 AM 5:44 PM
Waning Crescent, 30% visible
METAR KIRS 220254Z AUTO 15003KT 5SM BR SCT037 09/08 A2959 RMK AO2 T00850084
Pressure 29.59 in
Visibility 5.0 miles
Clouds Scattered Clouds 3700 ft
Heat Index 77 °F
Dew Point 49 °F
Humidity 44%
Rainfall 0.00 in
Snow Depth Not available.
8:03 AM 5:44 PM
Waning Crescent, 30% visible
METAR KIRS 220254Z AUTO 15003KT 5SM BR SCT037 09/08 A2959 RMK AO2 T00850084

Get Your Daily Forecast Email!

Thanks for signing up!

Be on the lookout for a verification email in your inbox.

You'll start receiving the daily forecast at 8 AM.

×

10-Day Weather Forecast

Almanac

Astronomy

Jan. 21, 2017 Rise Set
Actual Time
Civil Twilight
Nautical Twilight
Astronomical Twilight
Moon
Length of Visible Light
Length of Day
Tomorrow will be .
, % of the Moon is Illuminated

Today's Extremes

State Highs State Lows

Community

WunderPhotos

Upload Photos

1,962,540 photos uploaded!

WunderBlog® & News

Nearby

Air Quality

  Air Quality AQ Index Pollutant
Not available.

Snow Depth

Station Depth Elevation

Earthquake Activity

City Distance Mag. Time & Date
Minimum magnitude displayed is 2.5.

Coastal Water Temperatures

Place Temperature

Stations

Nearby Weather Stations

Station Location Temp. Windchill Dew Point Humidity Wind Precip. Elev Updated Type
                   

Watches & Warnings

Dense Fog Advisory
Issued: 8:22 PM CST Jan. 21, 2017 – National Weather Service

... Dense fog advisory now in effect until 10 am EST /9 am CST/
Sunday...

The dense fog advisory is now in effect until 10 am EST /9 am
CST/ Sunday.

Hazardous weather...

* visibilities of one quarter of a mile or less are expected
   tonight into Sunday morning.

* Patchy dense fog will increase in coverage during the
   overnight hours into early Sunday morning.

* Dense fog is expected to lift by late Sunday morning.

Impacts...

* travel is expected to be impacted overnight into Sunday
   morning.

Precautionary/preparedness actions...

A dense fog advisory means visibilities will frequently be
reduced to less than one quarter mile. If driving... slow down...
use your headlights... and leave plenty of distance ahead of you.